Time;durP1;ratioP1;P1;durP2;ratioP2;P2;SDS_P1;SDS_P2;PMS_P1;PMS_P2;Temp;Humidity;BMP_temperature;BMP_pressure;BME280_temperature;BME280_humidity;BME280_pressure;Samples;Min_cycle;Max_cycle;Signal;HPM_P1;HPM_P2
2022/07/20 00:00:09;;;;;;;0.00;0.00;;;26.90;39.10;;;28.06;34.70;101331.81;2059613;28;20081;-61
2022/07/20 00:01:13;;;;;;;0.00;0.00;;;26.90;39.20;;;28.01;34.92;101329.59;2064965;28;20050;-62
2022/07/20 00:02:21;;;;;;;0.10;0.10;;;26.90;39.30;;;27.94;35.20;101335.41;2056904;28;20065;-61
2022/07/20 00:03:24;;;;;;;0.00;0.00;;;26.90;39.40;;;27.90;35.42;101334.72;2056742;28;20061;-61
2022/07/20 00:04:27;;;;;;;0.00;0.00;;;26.90;39.50;;;27.89;35.21;101338.72;2065316;28;20054;-61
2022/07/20 00:05:32;;;;;;;0.00;0.00;;;26.90;39.50;;;27.89;35.19;101338.72;2062710;28;20525;-62
2022/07/20 00:06:38;;;;;;;0.10;0.10;;;26.90;39.50;;;27.90;35.20;101331.94;2063125;28;20051;-61
2022/07/20 00:07:42;;;;;;;0.05;0.05;;;26.80;39.50;;;27.92;35.19;101337.84;2056543;28;20055;-61
2022/07/20 00:11:29;;;;;;;0.00;0.00;;;26.70;39.60;;;27.90;34.98;101334.72;2062137;28;20053;-61
2022/07/20 00:12:32;;;;;;;0.00;0.00;;;26.60;39.60;;;27.85;35.04;101324.94;2056989;28;20129;-61
2022/07/20 00:13:35;;;;;;;0.00;0.00;;;26.60;39.70;;;27.82;35.17;101329.38;2056382;28;20166;-62
2022/07/20 00:14:38;;;;;;;0.00;0.00;;;26.60;39.70;;;27.76;35.02;101325.63;2056215;28;20535;-61
2022/07/20 00:15:41;;;;;;;0.00;0.00;;;26.60;39.60;;;27.73;35.26;101326.50;2057060;28;20529;-61
2022/07/20 00:16:44;;;;;;;0.00;0.00;;;26.60;39.60;;;27.72;35.25;101324.94;2056852;28;20593;-61
2022/07/20 00:17:47;;;;;;;0.00;0.00;;;26.60;39.50;;;27.70;35.07;101324.63;2057051;28;20518;-61
2022/07/20 00:18:51;;;;;;;0.10;0.03;;;26.50;39.50;;;27.66;35.46;101326.75;2056024;28;20399;-61
2022/07/20 00:19:54;;;;;;;0.00;0.00;;;26.60;39.60;;;27.61;35.26;101321.75;2056566;28;20051;-61
2022/07/20 00:21:02;;;;;;;0.00;0.00;;;26.50;39.60;;;27.57;35.61;101328.63;2056676;28;20051;-61
2022/07/20 00:22:04;;;;;;;0.00;0.00;;;26.50;39.60;;;27.53;35.54;101325.19;2056125;28;20078;-61
2022/07/20 00:23:07;;;;;;;0.00;0.00;;;26.50;39.60;;;27.51;35.64;101331.19;2056283;28;20057;-61
2022/07/20 00:24:11;;;;;;;0.00;0.00;;;26.50;39.50;;;27.51;35.59;101328.41;2056971;28;20135;-62
2022/07/20 00:25:13;;;;;;;0.00;0.00;;;26.50;39.50;;;27.49;35.47;101322.53;2056382;28;20058;-61
2022/07/20 00:26:17;;;;;;;0.00;0.00;;;26.50;39.50;;;27.46;35.65;101325.41;2056905;28;20126;-61
2022/07/20 00:27:19;;;;;;;0.10;0.10;;;26.60;39.40;;;27.41;35.63;101329.53;2056154;28;20517;-61
2022/07/20 00:28:23;;;;;;;0.00;0.00;;;26.50;39.30;;;27.41;35.30;101325.97;2058213;28;20062;-61
2022/07/20 00:29:25;;;;;;;0.00;0.00;;;26.50;39.30;;;27.42;35.51;101322.75;2065270;28;20069;-61
2022/07/20 00:30:29;;;;;;;0.00;0.00;;;26.50;39.30;;;27.44;35.13;101325.06;2063273;28;20053;-61
2022/07/20 00:31:31;;;;;;;0.00;0.00;;;26.50;39.30;;;27.40;35.61;101327.97;2064977;28;20066;-63
2022/07/20 00:32:37;;;;;;;0.00;0.00;;;26.50;39.30;;;27.39;35.52;101329.19;2056914;28;20081;-61
2022/07/20 00:33:40;;;;;;;0.00;0.00;;;26.50;39.30;;;27.41;35.42;101323.97;2059122;28;20054;-61
2022/07/20 00:34:44;;;;;;;0.00;0.00;;;26.30;39.30;;;27.41;35.16;101321.22;2065619;28;20123;-61
2022/07/20 00:35:46;;;;;;;0.10;0.10;;;26.30;39.30;;;27.41;35.36;101329.53;2057587;28;20061;-61
2022/07/20 00:36:51;;;;;;;0.00;0.00;;;26.30;39.30;;;27.40;35.37;101329.97;2054065;28;20620;-63
2022/07/20 00:37:53;;;;;;;0.00;0.00;;;26.30;39.30;;;27.40;34.99;101324.44;2056992;28;20082;-61
2022/07/20 00:38:57;;;;;;;0.00;0.00;;;26.30;39.30;;;27.37;34.90;101328.09;2064703;28;20058;-62
2022/07/20 00:40:00;;;;;;;0.00;0.00;;;26.30;39.30;;;27.36;35.03;101324.53;2057947;28;20189;-61
2022/07/20 00:41:03;;;;;;;0.05;0.05;;;26.20;39.20;;;27.34;34.97;101321.41;2063460;28;20522;-61
2022/07/20 00:42:07;;;;;;;0.00;0.00;;;26.20;39.30;;;27.33;34.85;101327.41;2064502;28;20469;-61
2022/07/20 00:43:10;;;;;;;0.00;0.00;;;26.10;39.20;;;27.29;34.95;101321.97;2056276;28;20533;-61
2022/07/20 00:44:13;;;;;;;0.00;0.00;;;26.10;39.20;;;27.24;35.32;101318.94;2055568;28;20134;-61
2022/07/20 00:45:16;;;;;;;0.00;0.00;;;26.10;39.30;;;27.16;35.10;101315.59;2064017;28;20132;-61
2022/07/20 00:46:19;;;;;;;0.00;0.00;;;26.10;39.30;;;27.18;35.08;101327.03;2056879;28;20527;-61
2022/07/20 00:47:22;;;;;;;0.00;0.00;;;26.10;39.30;;;27.17;35.50;101319.16;2059806;28;20050;-61
2022/07/20 00:48:25;;;;;;;0.00;0.00;;;26.10;39.40;;;27.16;35.26;101321.13;2063694;28;20046;-61
2022/07/20 00:49:28;;;;;;;0.00;0.00;;;26.10;39.40;;;27.15;35.25;101325.16;2061627;28;20079;-61
2022/07/20 00:50:31;;;;;;;0.00;0.00;;;26.10;39.40;;;27.17;35.14;101317.16;2064792;28;20054;-61
2022/07/20 00:51:35;;;;;;;0.00;0.00;;;26.10;39.30;;;27.16;34.97;101320.38;2063365;28;20422;-60
2022/07/20 00:52:39;;;;;;;0.00;0.00;;;26.10;39.30;;;27.16;34.70;101321.13;2064773;28;20046;-61
2022/07/20 00:53:43;;;;;;;0.00;0.00;;;26.00;39.20;;;27.17;34.88;101317.16;2065048;28;20065;-61
2022/07/20 00:54:48;;;;;;;0.00;0.00;;;26.00;39.20;;;27.16;34.97;101307.28;2063074;28;20058;-61
2022/07/20 00:55:51;;;;;;;0.00;0.00;;;26.00;39.30;;;27.15;34.61;101313.25;2063933;28;20069;-61
2022/07/20 00:56:53;;;;;;;0.00;0.00;;;25.90;39.30;;;27.14;34.67;101306.97;2063075;28;20517;-61
2022/07/20 00:57:57;;;;;;;0.00;0.00;;;25.90;39.30;;;27.15;35.11;101313.25;2056940;28;20057;-61
2022/07/20 00:59:02;;;;;;;0.00;0.00;;;25.90;39.20;;;27.12;34.42;101303.06;2064802;28;20073;-61
2022/07/20 01:00:07;;;;;;;0.08;0.08;;;25.90;39.10;;;27.11;34.81;101312.59;2059854;28;20404;-61
2022/07/20 01:01:10;;;;;;;0.00;0.00;;;25.90;39.10;;;27.08;35.13;101310.72;2048108;29;20059;-61
2022/07/20 01:02:14;;;;;;;0.00;0.00;;;25.90;39.10;;;27.08;35.03;101311.50;2040299;29;20465;-61
2022/07/20 01:03:17;;;;;;;0.10;0.10;;;25.90;39.10;;;27.07;34.92;101315.47;2051104;28;20499;-61
2022/07/20 01:04:21;;;;;;;0.00;0.00;;;25.90;39.10;;;27.08;35.08;101316.28;2064797;28;20838;-61
2022/07/20 01:05:24;;;;;;;0.00;0.00;;;25.90;39.30;;;27.06;35.12;101307.59;2055625;28;20105;-61
2022/07/20 01:06:28;;;;;;;0.10;0.10;;;25.90;39.20;;;27.06;34.64;101316.72;2057658;28;20476;-61
2022/07/20 01:07:31;;;;;;;0.10;0.10;;;25.90;39.30;;;27.09;34.66;101309.50;2056034;28;20495;-61
2022/07/20 01:08:36;;;;;;;0.08;0.08;;;25.90;39.20;;;27.09;34.52;101317.81;2055965;28;20467;-61
2022/07/20 01:09:38;;;;;;;0.00;0.00;;;25.90;39.10;;;27.08;34.78;101314.28;2063706;28;20061;-61
2022/07/20 01:10:42;;;;;;;0.10;0.10;;;25.90;39.10;;;27.10;34.99;101311.06;2064832;28;20062;-61
2022/07/20 01:11:45;;;;;;;0.00;0.00;;;25.80;39.00;;;27.06;34.61;101311.16;2059383;28;20086;-60
2022/07/20 01:12:49;;;;;;;0.00;0.00;;;25.80;39.10;;;27.04;35.17;101313.59;2056580;28;20062;-63
2022/07/20 01:13:52;;;;;;;0.00;0.00;;;25.80;39.10;;;27.07;34.62;101303.59;2063487;28;20513;-61
2022/07/20 01:14:55;;;;;;;0.00;0.00;;;25.80;39.10;;;27.05;34.86;101315.13;2061647;28;20126;-61
2022/07/20 01:15:59;;;;;;;0.00;0.00;;;25.90;39.20;;;27.03;34.46;101308.50;2055041;28;20050;-61
2022/07/20 01:17:02;;;;;;;0.00;0.00;;;25.90;39.10;;;27.01;34.64;101308.16;2060503;28;20392;-61
2022/07/20 01:18:05;;;;;;;0.08;0.08;;;25.90;39.10;;;26.97;34.88;101310.25;2071787;28;20049;-62
2022/07/20 01:19:08;;;;;;;0.00;0.00;;;25.90;39.10;;;26.94;34.70;101308.38;2069009;28;20486;-61
2022/07/20 01:20:16;;;;;;;0.00;0.00;;;25.80;39.00;;;26.92;34.79;101310.81;2059749;28;20142;-62
2022/07/20 01:21:21;;;;;;;0.00;0.00;;;25.80;39.00;;;26.91;35.18;101310.03;2072946;28;20085;-60
2022/07/20 01:22:23;;;;;;;0.10;0.10;;;25.80;39.00;;;26.91;34.76;101312.03;2060571;28;20085;-61
2022/07/20 01:23:27;;;;;;;0.00;0.00;;;25.80;39.10;;;26.90;34.87;101304.91;2056531;28;20072;-61
2022/07/20 01:24:29;;;;;;;0.00;0.00;;;25.80;39.00;;;26.90;34.57;101307.69;2064800;28;20046;-61
2022/07/20 01:25:36;;;;;;;0.10;0.10;;;25.80;39.00;;;26.87;35.10;101300.25;2072618;28;20077;-61
2022/07/20 01:26:41;;;;;;;0.00;0.00;;;25.80;39.00;;;26.85;34.70;101306.25;2060537;28;20517;-61
2022/07/20 01:27:44;;;;;;;0.00;0.00;;;25.80;39.10;;;26.81;34.73;101297.28;2056957;28;20499;-61
2022/07/20 01:28:47;;;;;;;0.00;0.00;;;25.80;39.10;;;26.80;35.27;101303.25;2064000;28;20065;-61
2022/07/20 01:29:51;;;;;;;0.00;0.00;;;25.70;39.10;;;26.81;34.76;101296.47;2058733;28;20058;-61
2022/07/20 01:30:53;;;;;;;0.00;0.00;;;25.70;39.20;;;26.81;34.77;101300.03;2068265;28;20129;-62
2022/07/20 01:31:57;;;;;;;0.00;0.00;;;25.70;39.20;;;26.80;35.48;101295.69;2062112;28;20050;-61
2022/07/20 01:32:59;;;;;;;0.00;0.00;;;25.70;39.30;;;26.76;34.95;101300.56;2062826;28;20054;-61
2022/07/20 01:34:03;;;;;;;0.00;0.00;;;25.70;39.30;;;26.71;34.88;101301.13;2069187;28;20518;-62
2022/07/20 01:35:06;;;;;;;0.00;0.00;;;25.60;39.30;;;26.68;35.21;101293.69;2063849;28;20425;-61
2022/07/20 01:36:10;;;;;;;0.00;0.00;;;25.60;39.30;;;26.70;35.24;101296.81;2064415;28;20521;-61
2022/07/20 01:37:14;;;;;;;0.00;0.00;;;25.60;39.40;;;26.67;35.56;101296.91;2064462;28;20054;-61
2022/07/20 01:38:17;;;;;;;0.00;0.00;;;25.60;39.40;;;26.65;35.27;101299.31;2060581;28;20436;-61
2022/07/20 01:39:20;;;;;;;0.00;0.00;;;25.60;39.40;;;26.60;35.48;101295.06;2058166;28;20406;-61
2022/07/20 01:40:24;;;;;;;0.00;0.00;;;25.60;39.30;;;26.57;35.28;101295.94;2063760;28;20054;-61
2022/07/20 01:41:26;;;;;;;0.00;0.00;;;25.60;39.40;;;26.57;35.72;101293.19;2063881;28;20414;-61
2022/07/20 01:42:32;;;;;;;0.10;0.10;;;25.50;39.30;;;26.55;35.07;101290.06;2064446;28;20426;-61
2022/07/20 01:43:35;;;;;;;0.00;0.00;;;25.50;39.40;;;26.51;35.88;101294.94;2063935;28;20467;-61
2022/07/20 01:44:37;;;;;;;0.00;0.00;;;25.50;39.40;;;26.49;35.35;101289.06;2064528;28;20132;-61
2022/07/20 01:45:41;;;;;;;0.20;0.10;;;25.50;39.50;;;26.48;35.79;101290.28;2063906;28;20058;-61
2022/07/20 01:46:43;;;;;;;0.00;0.00;;;25.50;39.60;;;26.46;36.10;101287.16;2064187;28;20061;-61
2022/07/20 01:47:47;;;;;;;0.10;0.10;;;25.50;39.60;;;26.47;35.56;101291.47;2064425;28;20090;-61
2022/07/20 01:48:50;;;;;;;0.00;0.00;;;25.40;39.60;;;26.48;35.65;101291.03;2063648;28;20481;-61
2022/07/20 01:49:53;;;;;;;0.00;0.00;;;25.50;39.70;;;26.49;35.39;101286.28;2063514;28;20125;-61
2022/07/20 01:50:57;;;;;;;0.00;0.00;;;25.40;39.70;;;26.48;36.07;101287.50;2056499;28;20304;-62
2022/07/20 01:52:00;;;;;;;0.00;0.00;;;25.40;39.70;;;26.46;35.64;101285.16;2055496;28;20047;-61
2022/07/20 01:53:06;;;;;;;0.00;0.00;;;25.40;39.70;;;26.43;35.96;101285.28;2056438;28;20058;-61
2022/07/20 01:54:08;;;;;;;0.00;0.00;;;25.40;39.80;;;26.42;36.02;101278.16;2063119;28;20054;-63
2022/07/20 01:55:12;;;;;;;0.00;0.00;;;25.40;39.80;;;26.38;35.71;101283.03;2063346;28;20061;-61
2022/07/20 01:56:14;;;;;;;0.00;0.00;;;25.40;39.80;;;26.33;35.75;101278.81;2064288;28;20084;-66
2022/07/20 01:57:18;;;;;;;0.08;0.08;;;25.30;39.80;;;26.32;35.68;101279.25;2064087;28;20082;-61
2022/07/20 01:58:20;;;;;;;0.00;0.00;;;25.30;39.80;;;26.30;36.38;101279.69;2064312;28;20089;-61
2022/07/20 01:59:24;;;;;;;0.10;0.00;;;25.30;40.00;;;26.29;35.67;101274.59;2056412;28;20514;-62
2022/07/20 02:00:28;;;;;;;0.00;0.00;;;25.30;40.00;;;26.28;36.09;101275.78;2059088;28;20137;-61
2022/07/20 02:01:30;;;;;;;0.00;0.00;;;25.30;40.00;;;26.26;36.10;101276.22;2056897;28;20479;-61
2022/07/20 02:02:34;;;;;;;0.00;0.00;;;25.20;39.90;;;26.23;36.28;101281.84;2056465;28;20046;-61
2022/07/20 02:03:38;;;;;;;0.00;0.00;;;25.30;40.00;;;26.20;36.17;101277.19;2059777;28;20101;-62
2022/07/20 02:04:42;;;;;;;0.00;0.00;;;25.20;40.00;;;26.16;36.50;101270.97;2060382;28;20394;-61
2022/07/20 02:05:45;;;;;;;0.00;0.00;;;25.20;40.00;;;26.16;36.36;101282.81;2057920;28;20051;-60
2022/07/20 02:06:48;;;;;;;0.00;0.00;;;25.20;40.10;;;26.15;36.49;101286.03;2059087;28;20054;-60
2022/07/20 02:07:51;;;;;;;0.08;0.08;;;25.20;40.10;;;26.10;36.09;101281.78;2059134;28;20059;-61
2022/07/20 02:08:55;;;;;;;0.00;0.00;;;25.10;40.10;;;26.12;36.49;101281.34;2067359;28;20485;-61
2022/07/20 02:09:58;;;;;;;0.10;0.10;;;25.10;40.20;;;26.11;36.59;101279.81;2061933;28;20050;-61
2022/07/20 02:11:01;;;;;;;0.00;0.00;;;25.10;40.20;;;26.05;36.11;101282.31;2050281;28;20090;-61
2022/07/20 02:12:05;;;;;;;0.00;0.00;;;25.10;40.20;;;26.00;36.31;101276.53;2057381;28;20078;-60
2022/07/20 02:13:08;;;;;;;0.00;0.00;;;25.10;40.30;;;25.97;36.78;101280.16;2066661;28;20050;-61
2022/07/20 02:14:11;;;;;;;0.00;0.00;;;25.10;40.30;;;25.94;36.96;101281.03;2067228;28;20058;-61
2022/07/20 02:16:14;;;;;;;0.00;0.00;;;25.00;40.30;;;25.92;37.10;101278.69;2060848;28;20109;-61
2022/07/20 02:16:37;;;;;;;0.00;0.00;;;25.00;40.30;;;25.87;37.13;101279.22;2061259;28;20093;-62
2022/07/20 02:17:41;;;;;;;0.05;0.05;;;25.00;40.40;;;25.82;37.14;101273.41;2061020;28;20065;-62
2022/07/20 02:18:46;;;;;;;0.00;0.00;;;24.90;40.50;;;25.79;37.31;101274.28;2066953;28;20565;-61
2022/07/20 02:19:50;;;;;;;0.00;0.00;;;24.90;40.60;;;25.75;36.96;101268.06;2066326;28;20100;-61
2022/07/20 02:20:53;;;;;;;0.00;0.00;;;24.80;40.60;;;25.70;37.41;101272.16;2067039;28;20608;-61
2022/07/20 02:21:56;;;;;;;0.03;0.03;;;24.80;40.80;;;25.73;37.50;101264.97;2057609;28;20046;-60
2022/07/20 02:22:59;;;;;;;0.00;0.00;;;24.70;40.90;;;25.73;37.08;101264.97;2061287;28;20042;-61
2022/07/20 02:24:04;;;;;;;0.00;0.00;;;24.60;41.00;;;25.73;37.56;101267.72;2066342;28;20549;-61
2022/07/20 02:25:08;;;;;;;0.47;0.00;;;24.60;41.10;;;25.68;37.42;101263.50;2058949;28;20129;-61
2022/07/20 02:26:11;;;;;;;0.00;0.00;;;24.60;41.20;;;25.63;37.27;101266.78;2058570;28;20119;-61
2022/07/20 02:27:14;;;;;;;0.00;0.00;;;24.50;41.20;;;25.56;37.60;101260.66;2058882;28;20121;-61
2022/07/20 02:28:17;;;;;;;0.00;0.00;;;24.50;41.20;;;25.48;37.78;101264.78;2058143;28;20050;-64
2022/07/20 02:29:19;;;;;;;0.00;0.00;;;24.50;41.30;;;25.46;37.67;101264.44;2060388;28;20081;-61
2022/07/20 02:30:23;;;;;;;0.00;0.00;;;24.50;41.30;;;25.41;37.55;101265.75;2066654;28;20082;-61
2022/07/20 02:31:26;;;;;;;0.10;0.10;;;24.50;41.40;;;25.38;37.57;101265.81;2060857;28;20054;-61
2022/07/20 02:32:35;;;;;;;0.00;0.00;;;24.50;41.40;;;25.29;38.09;101246.25;2058362;28;20129;-61
2022/07/20 02:33:38;;;;;;;0.00;0.00;;;24.40;41.40;;;25.38;38.29;101265.81;2061387;28;20129;-61
2022/07/20 02:34:41;;;;;;;0.10;0.10;;;24.40;41.50;;;25.35;37.83;101261.94;2062337;28;20046;-61
2022/07/20 02:35:44;;;;;;;0.00;0.00;;;24.40;41.50;;;25.31;38.02;101258.44;2058864;28;20503;-64
2022/07/20 02:36:47;;;;;;;0.00;0.00;;;24.40;41.60;;;25.31;38.02;101263.19;2058141;28;20081;-61
2022/07/20 02:37:49;;;;;;;0.00;0.00;;;24.40;41.60;;;25.24;38.08;101261.38;2058139;28;20442;-61
2022/07/20 02:38:53;;;;;;;0.00;0.00;;;24.30;41.70;;;25.28;38.26;101261.28;2058964;28;20640;-61
2022/07/20 02:39:58;;;;;;;0.10;0.10;;;24.30;41.80;;;25.28;38.28;101258.50;2059718;28;20536;-61
2022/07/20 02:41:01;;;;;;;0.00;0.00;;;24.20;41.90;;;25.25;37.96;101270.44;2058112;28;20047;-61
2022/07/20 02:42:04;;;;;;;0.00;0.00;;;24.20;42.00;;;25.21;38.06;101258.69;2066904;28;20058;-61
2022/07/20 02:43:07;;;;;;;0.00;0.00;;;24.10;42.00;;;25.19;38.51;101266.63;2066524;28;20050;-60
2022/07/20 02:44:10;;;;;;;0.00;0.00;;;24.10;42.20;;;25.17;38.68;101261.53;2066957;28;20050;-61
2022/07/20 02:45:13;;;;;;;0.00;0.00;;;24.10;42.30;;;25.19;38.30;101255.56;2059813;28;20066;-61
2022/07/20 02:46:15;;;;;;;0.00;0.00;;;24.00;42.30;;;25.20;38.48;101259.91;2059560;28;20495;-61
2022/07/20 02:47:19;;;;;;;0.00;0.00;;;24.00;42.30;;;25.19;38.57;101264.66;2066858;28;20494;-61
2022/07/20 02:48:21;;;;;;;0.00;0.00;;;24.00;42.50;;;25.16;38.68;101262.75;2064715;28;20058;-61
2022/07/20 02:49:26;;;;;;;0.00;0.00;;;24.00;42.50;;;25.15;38.60;101263.19;2058686;28;20055;-61
2022/07/20 02:50:30;;;;;;;0.00;0.00;;;23.90;42.50;;;25.13;38.44;101255.31;2058260;28;20392;-60
2022/07/20 02:51:34;;;;;;;0.00;0.00;;;23.90;42.50;;;25.11;38.23;101257.72;2057026;28;20097;-61
2022/07/20 02:52:37;;;;;;;0.00;0.00;;;23.90;42.60;;;25.08;38.87;101264.88;2058260;28;20046;-61
2022/07/20 02:53:41;;;;;;;0.00;0.00;;;23.90;42.60;;;25.08;38.72;101253.06;2064185;28;20046;-61
2022/07/20 02:54:44;;;;;;;0.00;0.00;;;23.90;42.60;;;25.05;38.45;101253.91;2065361;28;20055;-61
2022/07/20 02:55:49;;;;;;;0.00;0.00;;;23.90;42.70;;;25.02;38.66;101254.78;2066962;28;20058;-62
2022/07/20 02:56:51;;;;;;;0.00;0.00;;;23.90;42.70;;;25.00;38.61;101246.13;2066369;28;20517;-61
2022/07/20 02:57:56;;;;;;;0.00;0.00;;;23.90;42.60;;;25.01;38.60;101250.44;2058666;28;20477;-61
2022/07/20 02:58:58;;;;;;;0.00;0.00;;;23.90;42.70;;;24.98;39.01;101249.31;2057899;28;20518;-61
2022/07/20 03:00:02;;;;;;;0.00;0.00;;;23.90;42.70;;;24.96;38.59;101246.22;2057494;28;20108;-61
2022/07/20 03:01:05;;;;;;;0.00;0.00;;;23.80;42.60;;;24.93;39.11;101247.06;2058466;28;20054;-61
2022/07/20 03:02:08;;;;;;;0.00;0.00;;;23.80;42.60;;;24.90;38.81;101247.13;2065645;28;20081;-61
2022/07/20 03:03:12;;;;;;;0.10;0.10;;;23.80;42.70;;;24.91;38.98;101249.47;2066004;28;20076;-61
2022/07/20 03:04:14;;;;;;;0.00;0.00;;;23.80;42.80;;;24.90;38.71;101242.41;2055419;28;20062;-61
2022/07/20 03:05:18;;;;;;;0.10;0.00;;;23.80;42.80;;;24.89;39.31;101253.88;2057131;28;20170;-61
2022/07/20 03:06:21;;;;;;;0.00;0.00;;;23.80;42.90;;;24.90;38.99;101247.94;2066659;28;20050;-61
2022/07/20 03:07:24;;;;;;;0.00;0.00;;;23.70;42.90;;;24.90;39.02;101249.91;2059888;28;20426;-61
2022/07/20 03:08:28;;;;;;;0.10;0.03;;;23.70;42.90;;;24.86;39.06;101246.44;2058002;28;20054;-61
2022/07/20 03:09:30;;;;;;;0.00;0.00;;;23.80;43.00;;;24.90;38.97;101242.41;2058797;28;20147;-61
2022/07/20 03:10:34;;;;;;;0.00;0.00;;;23.70;43.00;;;24.89;38.95;101251.13;2063011;28;20090;-61
2022/07/20 03:11:38;;;;;;;0.00;0.00;;;23.70;43.00;;;24.83;39.39;101242.53;2065861;28;20116;-65
2022/07/20 03:12:42;;;;;;;0.00;0.00;;;23.80;43.00;;;24.80;39.37;101251.69;2050190;29;20415;-61
2022/07/20 03:13:45;;;;;;;0.00;0.00;;;23.80;43.00;;;24.76;39.18;101248.22;2052930;28;20050;-61
2022/07/20 03:14:49;;;;;;;0.00;0.00;;;23.80;43.00;;;24.74;39.69;101245.13;2056663;28;20510;-61
2022/07/20 03:15:52;;;;;;;0.00;0.00;;;23.80;43.00;;;24.72;39.61;101244.75;2063027;28;20054;-62
2022/07/20 03:16:55;;;;;;;0.00;0.00;;;23.80;43.10;;;24.75;39.42;101249.41;2062988;28;20054;-61
2022/07/20 03:17:59;;;;;;;0.00;0.00;;;23.70;43.00;;;24.75;39.59;101245.91;2057297;28;20105;-61
2022/07/20 03:19:02;;;;;;;0.10;0.10;;;23.70;43.10;;;24.74;39.61;101245.13;2060565;28;20046;-60
2022/07/20 03:20:06;;;;;;;0.00;0.00;;;23.70;43.20;;;24.74;39.52;101249.84;2056863;28;20569;-62
2022/07/20 03:21:09;;;;;;;0.00;0.00;;;23.60;43.20;;;24.74;39.12;101247.88;2056601;28;20126;-61
2022/07/20 03:22:12;;;;;;;0.00;0.00;;;23.60;43.20;;;24.71;39.29;101239.66;2061521;28;20502;-62
2022/07/20 03:23:15;;;;;;;0.00;0.00;;;23.60;43.20;;;24.74;39.62;101241.56;2057365;28;20459;-61
2022/07/20 03:24:20;;;;;;;0.00;0.00;;;23.60;43.30;;;24.72;39.36;101235.72;2064076;28;20422;-61
2022/07/20 03:25:25;;;;;;;0.00;0.00;;;23.60;43.30;;;24.70;39.45;101240.88;2073585;28;20050;-60
2022/07/20 03:26:27;;;;;;;0.00;0.00;;;23.60;43.20;;;24.67;39.54;101245.25;2065562;28;20061;-60
2022/07/20 03:27:32;;;;;;;0.00;0.00;;;23.60;43.20;;;24.65;39.35;101239.38;2067521;28;20221;-60
2022/07/20 03:28:35;;;;;;;0.00;0.00;;;23.60;43.30;;;24.65;39.77;101241.34;2065473;28;20050;-61
2022/07/20 03:29:38;;;;;;;0.00;0.00;;;23.60;43.30;;;24.63;39.37;101232.69;2058090;28;20088;-61
2022/07/20 03:30:41;;;;;;;0.00;0.00;;;23.60;43.30;;;24.63;39.42;101233.47;2057353;28;20605;-61
2022/07/20 03:31:44;;;;;;;0.00;0.00;;;23.60;43.30;;;24.60;39.35;101234.34;2065439;28;20085;-61
2022/07/20 03:32:47;;;;;;;0.00;0.00;;;23.60;43.20;;;24.56;39.48;101230.84;2060532;28;20479;-61
2022/07/20 03:33:50;;;;;;;0.00;0.00;;;23.60;43.20;;;24.55;39.30;101237.59;2048692;29;20054;-61
2022/07/20 03:34:53;;;;;;;0.00;0.00;;;23.60;43.20;;;24.54;39.40;101238.81;2055504;28;20141;-61
2022/07/20 03:35:56;;;;;;;0.00;0.00;;;23.50;43.00;;;24.50;39.14;101240.84;2061972;28;20054;-61
2022/07/20 03:37:00;;;;;;;0.03;0.03;;;23.60;43.00;;;24.49;39.52;101247.59;2057204;28;20062;-60
2022/07/20 03:38:02;;;;;;;0.00;0.00;;;23.50;43.00;;;24.50;39.26;101251.09;2058432;28;20051;-61
2022/07/20 03:39:05;;;;;;;0.00;0.00;;;23.50;43.10;;;24.49;39.34;101253.09;2063881;28;20061;-61
2022/07/20 03:40:09;;;;;;;0.00;0.00;;;23.50;43.10;;;24.50;39.36;101251.09;2057274;28;20122;-61
2022/07/20 03:41:13;;;;;;;0.00;0.00;;;23.40;43.20;;;24.45;39.55;101238.56;2060667;28;20111;-61
2022/07/20 03:42:15;;;;;;;0.00;0.00;;;23.40;43.20;;;24.52;39.31;101257.00;2056689;28;20093;-61
2022/07/20 03:43:21;;;;;;;0.00;0.00;;;23.40;43.20;;;24.50;39.21;101257.41;2056256;28;20047;-63
2022/07/20 03:44:24;;;;;;;0.00;0.00;;;23.40;43.30;;;24.50;39.57;101256.63;2064234;28;20050;-60
2022/07/20 03:45:27;;;;;;;0.00;0.00;;;23.40;43.30;;;24.46;39.32;101253.16;2065290;28;20422;-61
2022/07/20 03:46:30;;;;;;;0.00;0.00;;;23.40;43.20;;;24.44;39.66;101256.34;2065077;28;20047;-60
2022/07/20 03:47:33;;;;;;;0.00;0.00;;;23.40;43.20;;;24.42;39.53;101256.00;2064456;28;20054;-61
2022/07/20 03:48:36;;;;;;;0.00;0.00;;;23.40;43.20;;;24.42;39.31;101256.00;2065409;28;20054;-61
2022/07/20 03:49:40;;;;;;;0.00;0.00;;;23.40;43.10;;;24.40;39.21;101258.41;2061462;28;20510;-60
2022/07/20 03:50:42;;;;;;;0.00;0.00;;;23.40;43.20;;;24.45;39.39;101259.91;2048655;29;20106;-61
2022/07/20 03:51:46;;;;;;;0.00;0.00;;;23.40;43.20;;;24.46;39.61;101266.97;2054418;28;20058;-61
2022/07/20 03:52:48;;;;;;;0.00;0.00;;;23.40;43.20;;;24.38;39.48;101244.25;2064879;28;20088;-61
2022/07/20 03:53:52;;;;;;;0.00;0.00;;;23.30;43.40;;;24.42;39.37;101258.00;2056482;28;20050;-61
2022/07/20 03:54:54;;;;;;;0.00;0.00;;;23.40;43.20;;;24.42;39.41;101250.47;2051680;28;20059;-61
2022/07/20 03:55:58;;;;;;;0.00;0.00;;;23.40;43.20;;;24.41;39.33;101256.41;2057080;28;20063;-61
2022/07/20 03:57:01;;;;;;;0.00;0.00;;;23.40;43.10;;;24.40;39.58;101257.63;2048810;28;20051;-62
2022/07/20 03:58:04;;;;;;;0.10;0.10;;;23.40;43.10;;;24.38;39.57;101258.06;2058866;28;20061;-61
2022/07/20 03:59:11;;;;;;;0.00;0.00;;;23.40;43.00;;;24.40;39.31;101247.38;2065351;28;20097;-61
2022/07/20 04:00:16;;;;;;;0.00;0.00;;;23.40;43.10;;;24.41;39.41;101257.22;2058046;28;20146;-61
2022/07/20 04:01:18;;;;;;;0.00;0.00;;;23.40;43.10;;;24.41;39.48;101250.91;2057886;28;20537;-62
2022/07/20 04:02:22;;;;;;;0.00;0.00;;;23.40;43.10;;;24.40;39.39;101252.91;2056736;28;20125;-61
2022/07/20 04:03:24;;;;;;;0.00;0.00;;;23.40;43.10;;;24.37;39.59;101259.25;2056447;28;20054;-61
2022/07/20 04:04:28;;;;;;;0.00;0.00;;;23.40;43.10;;;24.36;39.77;101246.66;2065257;28;20104;-61
2022/07/20 04:05:31;;;;;;;0.00;0.00;;;23.40;43.20;;;24.36;39.57;101251.38;2061327;28;20070;-60
2022/07/20 04:06:34;;;;;;;0.00;0.00;;;23.40;43.20;;;24.33;39.53;101264.06;2064893;28;20089;-60
2022/07/20 04:07:38;;;;;;;0.00;0.00;;;23.40;43.20;;;24.30;39.86;101261.38;2065192;28;20047;-61
2022/07/20 04:08:41;;;;;;;0.10;0.10;;;23.40;43.30;;;24.32;39.78;101251.47;2057575;28;20536;-61
2022/07/20 04:09:44;;;;;;;0.00;0.00;;;23.30;43.40;;;24.32;39.74;101248.72;2056555;28;20054;-61
2022/07/20 04:10:48;;;;;;;0.00;0.00;;;23.30;43.50;;;24.32;39.91;101240.44;2056448;28;20086;-61
2022/07/20 04:11:52;;;;;;;0.00;0.00;;;23.30;43.50;;;24.32;39.92;101250.69;2059690;28;20066;-61
2022/07/20 04:12:56;;;;;;;0.10;0.10;;;23.30;43.60;;;24.29;39.81;101249.53;2056993;28;20059;-60
2022/07/20 04:13:58;;;;;;;0.10;0.00;;;23.30;43.50;;;24.29;39.85;101257.81;2056532;28;20502;-61
2022/07/20 04:15:04;;;;;;;0.10;0.10;;;23.30;43.50;;;24.32;39.90;101250.69;2056108;28;20055;-61
2022/07/20 04:16:07;;;;;;;0.10;0.10;;;23.20;43.40;;;24.33;39.84;101247.50;2057073;28;20129;-61
2022/07/20 04:17:10;;;;;;;0.00;0.00;;;23.20;43.50;;;24.32;39.70;101257.00;2056646;28;20047;-61
2022/07/20 04:18:16;;;;;;;0.00;0.00;;;23.20;43.50;;;24.29;39.81;101252.31;2056400;28;20125;-62
2022/07/20 04:19:18;;;;;;;0.00;0.00;;;23.20;43.60;;;24.27;39.81;101257.50;2057113;28;20058;-60
2022/07/20 04:20:22;;;;;;;0.00;0.00;;;23.20;43.50;;;24.24;39.87;101250.06;2057176;28;20129;-61
2022/07/20 04:21:24;;;;;;;0.00;0.00;;;23.20;43.70;;;24.23;40.09;101250.47;2065057;28;20502;-60
2022/07/20 04:22:28;;;;;;;0.00;0.00;;;23.20;43.80;;;24.21;40.31;101255.63;2064749;28;20077;-61
2022/07/20 04:23:30;;;;;;;0.00;0.00;;;23.10;43.80;;;24.20;40.05;101252.09;2064336;28;20557;-61
2022/07/20 04:24:34;;;;;;;0.10;0.10;;;23.10;43.90;;;24.20;40.45;101254.84;2067556;28;20498;-60
2022/07/20 04:25:36;;;;;;;0.05;0.05;;;23.10;43.90;;;24.19;40.29;101252.50;2071006;28;20081;-61
2022/07/20 04:26:40;;;;;;;0.03;0.03;;;23.10;44.00;;;24.18;40.12;101259.25;2061511;28;20543;-62